createdAt,value
2022-11-12T00:00:29.398Z,15.50
2022-11-12T00:01:29.570Z,11.40
2022-11-12T00:02:29.751Z,10.40
2022-11-12T00:03:29.921Z,13.20
2022-11-12T00:04:30.090Z,16.70
2022-11-12T00:05:30.270Z,11.00
2022-11-12T00:06:30.429Z,11.30
2022-11-12T00:07:30.619Z,16.80
2022-11-12T00:08:30.859Z,11.50
2022-11-12T00:09:30.941Z,15.50
2022-11-12T00:10:31.122Z,12.50
2022-11-12T00:11:31.288Z,12.10
2022-11-12T00:12:31.478Z,121.90
2022-11-12T00:13:31.640Z,63.30
2022-11-12T00:14:31.812Z,13.00
2022-11-12T00:15:31.998Z,16.00
2022-11-12T00:16:32.148Z,13.80
2022-11-12T00:17:32.336Z,11.80
2022-11-12T00:18:32.497Z,10.80
2022-11-12T00:19:32.677Z,12.70
2022-11-12T00:20:32.845Z,13.60
2022-11-12T00:21:33.018Z,11.50
2022-11-12T00:22:33.228Z,12.70
2022-11-12T00:23:33.364Z,10.50
2022-11-12T00:24:33.532Z,15.60
2022-11-12T00:25:33.709Z,13.80
2022-11-12T00:26:33.878Z,12.60
2022-11-12T00:27:34.069Z,10.80
2022-11-12T00:28:38.001Z,13.70
2022-11-12T00:29:34.426Z,14.70
2022-11-12T00:30:34.596Z,11.50
2022-11-12T00:31:34.769Z,10.50
2022-11-12T00:32:34.956Z,13.10
2022-11-12T00:33:35.128Z,14.60
2022-11-12T00:34:35.296Z,12.00
2022-11-12T00:35:35.474Z,10.60
2022-11-12T00:36:35.647Z,13.40
2022-11-12T00:37:35.817Z,11.70
2022-11-12T00:38:35.983Z,13.80
2022-11-12T00:39:36.147Z,13.40
2022-11-12T00:40:36.307Z,12.20
2022-11-12T00:41:36.491Z,13.20
2022-11-12T00:42:36.653Z,11.10
2022-11-12T00:43:36.817Z,11.50
2022-11-12T00:44:36.985Z,8.10
2022-11-12T00:45:37.177Z,10.00
2022-11-12T00:46:37.355Z,8.10
2022-11-12T00:47:37.515Z,10.60
2022-11-12T00:48:37.676Z,8.60
2022-11-12T00:49:37.867Z,10.60
2022-11-12T00:50:38.025Z,11.60
2022-11-12T00:51:38.224Z,9.20
2022-11-12T00:52:38.376Z,10.00
2022-11-12T00:53:38.548Z,12.20
2022-11-12T00:54:38.729Z,10.50
2022-11-12T00:55:38.894Z,10.20
2022-11-12T00:56:39.091Z,12.00
2022-11-12T00:57:39.247Z,14.20
2022-11-12T00:58:39.417Z,8.70
2022-11-12T00:59:39.576Z,14.50
2022-11-12T01:00:39.805Z,12.60
2022-11-12T01:01:39.928Z,8.10
2022-11-12T01:02:44.256Z,11.10
2022-11-12T01:03:41.301Z,10.90
2022-11-12T01:04:40.457Z,10.80
2022-11-12T01:05:40.625Z,10.90
2022-11-12T01:06:40.860Z,13.00
2022-11-12T01:07:40.965Z,11.20
2022-11-12T01:08:41.135Z,9.90
2022-11-12T01:09:41.284Z,10.50
2022-11-12T01:10:41.455Z,8.90
2022-11-12T01:11:41.624Z,9.20
2022-11-12T01:12:41.776Z,9.80
2022-11-12T01:13:44.384Z,7.10
2022-11-12T01:14:42.145Z,11.00
2022-11-12T01:15:42.313Z,9.30
2022-11-12T01:16:42.514Z,8.70
2022-11-12T01:17:42.683Z,11.30
2022-11-12T01:18:42.863Z,10.70
2022-11-12T01:19:43.375Z,12.20
2022-11-12T01:20:43.204Z,9.30
2022-11-12T01:21:43.373Z,9.10
2022-11-12T01:22:43.531Z,13.60
2022-11-12T01:23:43.695Z,12.40
2022-11-12T01:24:43.868Z,6.40
2022-11-12T01:25:44.051Z,7.60
2022-11-12T01:26:44.263Z,8.20
2022-11-12T01:27:44.413Z,7.40
2022-11-12T01:28:44.612Z,9.10
2022-11-12T01:29:44.762Z,5.80
2022-11-12T01:30:44.963Z,7.50
2022-11-12T01:31:45.122Z,7.80
2022-11-12T01:32:45.282Z,7.60
2022-11-12T01:33:45.482Z,5.20
2022-11-12T01:34:45.651Z,5.90
2022-11-12T01:35:45.867Z,8.00
2022-11-12T01:36:46.001Z,6.80
2022-11-12T01:37:46.121Z,7.70
2022-11-12T01:38:46.312Z,4.50
2022-11-12T01:39:46.463Z,5.60
2022-11-12T01:40:46.652Z,4.90
2022-11-12T01:41:46.821Z,4.40
2022-11-12T01:42:46.982Z,6.00
2022-11-12T01:43:47.131Z,4.50
2022-11-12T01:44:47.321Z,4.20
2022-11-12T01:45:47.473Z,5.60
2022-11-12T01:46:47.705Z,5.80
2022-11-12T01:47:47.821Z,3.80
2022-11-12T01:48:48.011Z,4.50
2022-11-12T01:49:53.233Z,2.80
2022-11-12T01:50:49.383Z,3.50
2022-11-12T01:51:48.581Z,3.30
2022-11-12T01:52:48.730Z,5.40
2022-11-12T01:53:48.924Z,4.80
2022-11-12T01:54:49.111Z,6.50
2022-11-12T01:55:49.261Z,3.40
2022-11-12T01:56:49.470Z,4.90
2022-11-12T01:57:49.622Z,5.60
2022-11-12T01:58:49.810Z,3.70
2022-11-12T01:59:49.990Z,6.00
2022-11-12T02:00:50.240Z,7.70
2022-11-12T02:01:50.339Z,3.10
2022-11-12T02:02:50.499Z,5.20
2022-11-12T02:03:50.689Z,6.60
2022-11-12T02:04:50.880Z,9.90
2022-11-12T02:05:51.059Z,2.70
2022-11-12T02:06:51.340Z,3.60
2022-11-12T02:07:51.421Z,6.60
2022-11-12T02:08:51.614Z,5.30
2022-11-12T02:09:51.777Z,2.70
2022-11-12T02:10:51.928Z,3.40
2022-11-12T02:11:52.098Z,4.00
2022-11-12T02:12:52.263Z,3.30
2022-11-12T02:13:52.409Z,5.20
2022-11-12T02:14:52.600Z,4.00
2022-11-12T02:15:52.788Z,5.10
2022-11-12T02:16:52.996Z,3.70
2022-11-12T02:17:53.158Z,2.30
2022-11-12T02:18:53.318Z,4.10
2022-11-12T02:19:53.468Z,4.00
2022-11-12T02:20:53.657Z,3.40
2022-11-12T02:21:53.857Z,3.40
2022-11-12T02:22:54.006Z,3.50
2022-11-12T02:23:54.188Z,2.80
2022-11-12T02:24:54.386Z,5.80
2022-11-12T02:25:54.538Z,4.70
2022-11-12T02:26:54.758Z,6.20
2022-11-12T02:27:54.906Z,3.30
2022-11-12T02:28:55.097Z,2.80
2022-11-12T02:29:55.286Z,2.70
2022-11-12T02:30:55.485Z,4.60
2022-11-12T02:31:55.655Z,3.80
2022-11-12T02:32:55.807Z,4.10
2022-11-12T02:33:55.959Z,1.60
2022-11-12T02:34:56.166Z,5.40
2022-11-12T02:35:56.331Z,5.20
2022-11-12T02:36:56.514Z,4.70
2022-11-12T02:37:56.665Z,5.70
2022-11-12T02:38:56.856Z,3.10
2022-11-12T02:39:57.014Z,3.60
2022-11-12T02:40:57.182Z,5.70
2022-11-12T02:41:57.342Z,4.20
2022-11-12T02:42:57.495Z,4.70
2022-11-12T02:43:57.686Z,3.70
2022-11-12T02:44:57.883Z,4.70
2022-11-12T02:45:58.035Z,3.70
2022-11-12T02:46:58.235Z,2.60
2022-11-12T02:47:58.395Z,3.20
2022-11-12T02:48:58.557Z,6.30
2022-11-12T02:49:58.714Z,3.50
2022-11-12T02:50:58.879Z,1.70
2022-11-12T02:51:59.035Z,7.30
2022-11-12T02:52:59.202Z,2.50
2022-11-12T02:53:59.383Z,3.70
2022-11-12T02:54:59.574Z,4.60
2022-11-12T02:55:59.753Z,5.10
2022-11-12T02:56:59.963Z,3.70
2022-11-12T02:58:00.123Z,3.30
2022-11-12T02:59:00.314Z,2.70
2022-11-12T03:00:00.499Z,4.40
2022-11-12T03:01:00.705Z,3.20
2022-11-12T03:02:00.851Z,2.70
2022-11-12T03:03:01.006Z,5.40
2022-11-12T03:04:01.193Z,5.60
2022-11-12T03:05:01.381Z,2.80
2022-11-12T03:06:01.535Z,3.90
2022-11-12T03:07:01.775Z,3.70
2022-11-12T03:08:01.903Z,4.20
2022-11-12T03:09:02.091Z,4.00
2022-11-12T03:10:02.273Z,3.60
2022-11-12T03:11:02.465Z,4.20
2022-11-12T03:12:02.642Z,5.60
2022-11-12T03:13:02.802Z,4.10
2022-11-12T03:14:02.992Z,3.50
2022-11-12T03:15:03.203Z,3.70
2022-11-12T03:16:03.342Z,3.70
2022-11-12T03:17:03.555Z,7.50
2022-11-12T03:18:03.712Z,4.90
2022-11-12T03:19:03.864Z,4.50
2022-11-12T03:20:04.023Z,2.30
2022-11-12T03:21:04.210Z,3.60
2022-11-12T03:22:04.418Z,3.00
2022-11-12T03:23:04.561Z,2.60
2022-11-12T03:24:04.757Z,2.50
2022-11-12T03:25:04.942Z,2.50
2022-11-12T03:26:05.111Z,2.60
2022-11-12T03:27:05.272Z,4.70
2022-11-12T03:28:05.433Z,7.00
2022-11-12T03:29:05.604Z,1.90
2022-11-12T03:30:05.752Z,1.90
2022-11-12T03:31:05.951Z,5.40
2022-11-12T03:32:06.105Z,3.40
2022-11-12T03:33:06.297Z,2.20
2022-11-12T03:34:06.484Z,3.90
2022-11-12T03:35:06.653Z,2.30
2022-11-12T03:36:06.850Z,2.90
2022-11-12T03:37:07.002Z,3.10
2022-11-12T03:38:07.191Z,4.70
2022-11-12T03:39:07.350Z,2.10
2022-11-12T03:40:07.531Z,4.80
2022-11-12T03:41:07.749Z,4.40
2022-11-12T03:42:07.900Z,4.20
2022-11-12T03:43:08.090Z,3.50
2022-11-12T03:44:08.270Z,5.60
2022-11-12T03:45:08.460Z,4.90
2022-11-12T03:46:08.660Z,2.90
2022-11-12T03:47:08.822Z,5.70
2022-11-12T03:48:08.971Z,2.50
2022-11-12T03:49:09.169Z,2.90
2022-11-12T03:50:09.340Z,3.70
2022-11-12T03:51:09.524Z,3.30
2022-11-12T03:52:09.677Z,2.80
2022-11-12T03:53:09.882Z,2.50
2022-11-12T03:54:10.030Z,5.10
2022-11-12T03:55:10.228Z,3.00
2022-11-12T03:56:10.399Z,2.00
2022-11-12T03:57:10.559Z,3.00
2022-11-12T03:58:10.739Z,3.00
2022-11-12T03:59:10.940Z,3.20
2022-11-12T04:00:11.096Z,2.20
2022-11-12T04:01:11.358Z,5.20
2022-11-12T04:02:11.469Z,4.10
2022-11-12T04:03:11.667Z,4.80
2022-11-12T04:04:11.850Z,2.30
2022-11-12T04:05:12.010Z,1.70
2022-11-12T04:06:12.179Z,2.10
2022-11-12T04:07:12.376Z,4.40
2022-11-12T04:08:12.528Z,4.30
2022-11-12T04:09:12.699Z,3.30
2022-11-12T04:10:12.848Z,2.80
2022-11-12T04:11:13.070Z,4.10
2022-11-12T04:12:13.237Z,4.10
2022-11-12T04:13:13.408Z,3.40
2022-11-12T04:14:13.597Z,3.70
2022-11-12T04:15:13.789Z,4.00
2022-11-12T04:16:13.959Z,2.20
2022-11-12T04:17:14.110Z,4.20
2022-11-12T04:18:14.297Z,3.40
2022-11-12T04:19:14.493Z,4.70
2022-11-12T04:20:14.638Z,3.90
2022-11-12T04:21:14.876Z,2.50
2022-11-12T04:22:14.996Z,4.50
2022-11-12T04:23:15.185Z,4.80
2022-11-12T04:24:15.368Z,3.00
2022-11-12T04:25:15.556Z,3.00
2022-11-12T04:26:15.756Z,2.30
2022-11-12T04:27:15.912Z,4.60
2022-11-12T04:28:16.087Z,2.30
2022-11-12T04:29:16.287Z,4.00
2022-11-12T04:30:16.456Z,2.30
2022-11-12T04:31:16.609Z,4.50
2022-11-12T04:32:16.799Z,5.40
2022-11-12T04:33:17.003Z,3.90
2022-11-12T04:34:17.146Z,3.50
2022-11-12T04:35:17.348Z,4.90
2022-11-12T04:36:17.517Z,4.40
2022-11-12T04:37:22.372Z,4.40
2022-11-12T04:38:18.850Z,3.20
2022-11-12T04:39:18.040Z,3.90
2022-11-12T04:40:18.195Z,5.60
2022-11-12T04:41:18.358Z,3.30
2022-11-12T04:42:18.538Z,3.00
2022-11-12T04:43:18.725Z,2.80
2022-11-12T04:44:18.891Z,4.10
2022-11-12T04:45:19.086Z,5.00
2022-11-12T04:46:19.245Z,5.90
2022-11-12T04:47:19.404Z,4.20
2022-11-12T04:48:19.555Z,2.40
2022-11-12T04:49:19.744Z,6.10
2022-11-12T04:50:19.974Z,3.10
2022-11-12T04:51:20.135Z,3.00
2022-11-12T04:52:20.286Z,4.20
2022-11-12T04:53:20.475Z,4.80
2022-11-12T04:54:20.633Z,5.70
2022-11-12T04:55:20.837Z,5.60
2022-11-12T04:56:20.995Z,2.40
2022-11-12T04:57:21.144Z,6.50
2022-11-12T04:58:21.339Z,3.80
2022-11-12T04:59:21.532Z,3.60
2022-11-12T05:00:21.693Z,3.00
2022-11-12T05:01:21.867Z,4.60
2022-11-12T05:02:22.012Z,5.80
2022-11-12T05:03:22.220Z,4.70
2022-11-12T05:04:22.365Z,3.50
2022-11-12T05:05:22.573Z,6.90
2022-11-12T05:06:22.724Z,5.20
2022-11-12T05:07:22.957Z,4.70
2022-11-12T05:08:23.129Z,4.10
2022-11-12T05:09:23.264Z,3.50
2022-11-12T05:10:23.432Z,3.80
2022-11-12T05:11:23.585Z,5.30
2022-11-12T05:12:23.783Z,6.10
2022-11-12T05:13:23.961Z,5.60
2022-11-12T05:14:24.133Z,6.10
2022-11-12T05:15:26.321Z,4.90
2022-11-12T05:16:24.510Z,4.10
2022-11-12T05:17:24.702Z,6.40
2022-11-12T05:18:25.181Z,5.60
2022-11-12T05:19:25.041Z,3.80
2022-11-12T05:20:25.191Z,5.70
2022-11-12T05:21:25.402Z,4.80
2022-11-12T05:22:42.776Z,5.00
2022-11-12T05:23:26.733Z,5.20
2022-11-12T05:24:41.001Z,2.10
2022-11-12T05:25:27.101Z,5.80
2022-11-12T05:26:26.289Z,5.20
2022-11-12T05:27:26.443Z,2.80
2022-11-12T05:28:26.872Z,2.60
2022-11-12T05:29:26.801Z,3.90
2022-11-12T05:30:27.016Z,3.00
2022-11-12T05:31:27.160Z,4.60
2022-11-12T05:32:27.350Z,5.80
2022-11-12T05:33:27.541Z,7.10
2022-11-12T05:34:27.730Z,6.30
2022-11-12T05:35:27.930Z,3.80
2022-11-12T05:36:28.090Z,6.50
2022-11-12T05:37:28.247Z,3.50
2022-11-12T05:38:28.861Z,3.00
2022-11-12T05:39:28.600Z,6.30
2022-11-12T05:40:28.801Z,5.10
2022-11-12T05:41:44.986Z,4.40
2022-11-12T05:42:30.129Z,3.70
2022-11-12T05:43:29.309Z,3.50
2022-11-12T05:44:29.499Z,6.30
2022-11-12T05:45:29.707Z,4.20
2022-11-12T05:46:29.859Z,6.00
2022-11-12T05:47:30.059Z,3.20
2022-11-12T05:48:30.721Z,6.60
2022-11-12T05:49:30.369Z,3.60
2022-11-12T05:50:39.955Z,7.90
2022-11-12T05:51:31.748Z,3.90
2022-11-12T05:52:30.938Z,4.10
2022-11-12T05:53:31.095Z,4.90
2022-11-12T05:54:31.278Z,4.20
2022-11-12T05:55:36.785Z,3.00
2022-11-12T05:56:32.619Z,3.80
2022-11-12T05:57:31.788Z,7.40
2022-11-12T05:58:31.976Z,6.30
2022-11-12T05:59:32.147Z,3.60
2022-11-12T06:00:32.327Z,4.60
2022-11-12T06:01:32.508Z,3.60
2022-11-12T06:02:32.729Z,5.80
2022-11-12T06:03:32.870Z,3.30
2022-11-12T06:04:33.037Z,3.70
2022-11-12T06:05:33.235Z,5.70
2022-11-12T06:06:33.378Z,4.20
2022-11-12T06:07:33.557Z,4.10
2022-11-12T06:08:33.736Z,5.30
2022-11-12T06:09:33.906Z,4.70
2022-11-12T06:10:34.094Z,6.20
2022-11-12T06:11:34.285Z,5.40
2022-11-12T06:12:34.425Z,5.20
2022-11-12T06:13:34.618Z,5.80
2022-11-12T06:14:34.792Z,4.80
2022-11-12T06:15:39.118Z,5.80
2022-11-12T06:16:35.146Z,3.70
2022-11-12T06:17:35.406Z,5.60
2022-11-12T06:18:35.530Z,6.80
2022-11-12T06:19:35.716Z,4.40
2022-11-12T06:20:36.088Z,5.70
2022-11-12T06:21:36.054Z,6.40
2022-11-12T06:22:36.247Z,5.50
2022-11-12T06:23:36.425Z,8.20
2022-11-12T06:24:36.616Z,6.00
2022-11-12T06:25:36.816Z,8.20
2022-11-12T06:26:36.995Z,6.20
2022-11-12T06:27:37.174Z,7.40
2022-11-12T06:28:37.404Z,8.00
2022-11-12T06:29:37.524Z,7.10
2022-11-12T06:30:37.734Z,6.20
2022-11-12T06:31:37.873Z,3.30
2022-11-12T06:32:38.053Z,5.80
2022-11-12T06:33:38.242Z,6.20
2022-11-12T06:34:38.434Z,5.60
2022-11-12T06:35:42.729Z,5.40
2022-11-12T06:36:38.773Z,5.60
2022-11-12T06:37:38.955Z,4.30
2022-11-12T06:38:39.131Z,6.30
2022-11-12T06:39:39.313Z,7.50
2022-11-12T06:40:39.503Z,5.10
2022-11-12T06:41:39.674Z,5.20
2022-11-12T06:42:39.843Z,4.90
2022-11-12T06:43:40.028Z,6.10
2022-11-12T06:44:40.194Z,4.10
2022-11-12T06:45:40.393Z,5.20
2022-11-12T06:46:40.573Z,7.70
2022-11-12T06:47:40.762Z,5.50
2022-11-12T06:48:40.912Z,5.00
2022-11-12T06:49:41.096Z,11.40
2022-11-12T06:50:41.292Z,5.50
2022-11-12T06:51:41.435Z,6.20
2022-11-12T06:52:41.623Z,8.30
2022-11-12T06:53:41.821Z,4.70
2022-11-12T06:54:41.982Z,6.00
2022-11-12T06:55:42.151Z,4.90
2022-11-12T06:56:42.320Z,4.60
2022-11-12T06:57:42.464Z,5.10
2022-11-12T06:58:42.661Z,6.10
2022-11-12T06:59:42.815Z,4.00
2022-11-12T07:00:43.021Z,5.10
2022-11-12T07:01:43.243Z,5.80
2022-11-12T07:02:43.342Z,5.00
2022-11-12T07:03:43.501Z,7.00
2022-11-12T07:04:43.671Z,4.30
2022-11-12T07:05:43.861Z,8.60
2022-11-12T07:06:44.076Z,8.80
2022-11-12T07:07:44.229Z,6.90
2022-11-12T07:08:44.401Z,7.00
2022-11-12T07:09:44.582Z,4.50
2022-11-12T07:10:44.781Z,9.80
2022-11-12T07:11:44.941Z,4.50
2022-11-12T07:12:49.053Z,5.00
2022-11-12T07:13:46.300Z,4.80
2022-11-12T07:14:45.491Z,8.00
2022-11-12T07:15:45.680Z,3.90
2022-11-12T07:16:45.859Z,4.20
2022-11-12T07:17:46.031Z,4.20
2022-11-12T07:18:46.210Z,6.20
2022-11-12T07:19:46.389Z,3.20
2022-11-12T07:20:46.578Z,4.10
2022-11-12T07:21:46.719Z,2.70
2022-11-12T07:22:46.890Z,2.80
2022-11-12T07:23:47.060Z,5.70
2022-11-12T07:24:47.241Z,10.20
2022-11-12T07:25:47.409Z,4.10
2022-11-12T07:26:47.918Z,5.70
2022-11-12T07:27:47.769Z,2.90
2022-11-12T07:28:47.949Z,4.70
2022-11-12T07:29:48.921Z,6.10
2022-11-12T07:30:48.300Z,6.80
2022-11-12T07:31:48.479Z,5.40
2022-11-12T07:32:52.007Z,2.90
2022-11-12T07:33:48.830Z,4.50
2022-11-12T07:34:49.010Z,5.00
2022-11-12T07:35:49.199Z,5.30
2022-11-12T07:36:49.348Z,3.20
2022-11-12T07:37:49.520Z,2.30
2022-11-12T07:38:49.708Z,4.30
2022-11-12T07:39:49.849Z,3.90
2022-11-12T07:40:50.049Z,3.30
2022-11-12T07:41:50.209Z,8.20
2022-11-12T07:42:50.399Z,3.50
2022-11-12T07:43:50.578Z,4.20
2022-11-12T07:44:50.770Z,4.70
2022-11-12T07:45:50.959Z,5.70
2022-11-12T07:46:51.116Z,9.40
2022-11-12T07:47:51.298Z,4.80
2022-11-12T07:48:51.511Z,4.80
2022-11-12T07:49:51.648Z,5.30
2022-11-12T07:50:51.850Z,3.40
2022-11-12T07:51:52.019Z,8.10
2022-11-12T07:52:52.200Z,4.20
2022-11-12T07:53:56.377Z,4.30
2022-11-12T07:54:53.580Z,4.00
2022-11-12T07:55:52.739Z,6.30
2022-11-12T07:56:52.887Z,6.50
2022-11-12T07:57:53.086Z,5.20
2022-11-12T07:58:53.241Z,6.00
2022-11-12T07:59:53.419Z,3.40
2022-11-12T08:00:53.617Z,9.40
2022-11-12T08:01:53.791Z,5.20
2022-11-12T08:02:53.942Z,6.80
2022-11-12T08:03:54.095Z,7.90
2022-11-12T08:04:54.278Z,4.80
2022-11-12T08:05:54.477Z,6.10
2022-11-12T08:06:54.781Z,4.50
2022-11-12T08:07:54.996Z,3.70
2022-11-12T08:08:55.006Z,2.50
2022-11-12T08:09:55.178Z,5.30
2022-11-12T08:10:55.378Z,5.40
2022-11-12T08:11:55.528Z,3.90
2022-11-12T08:12:55.707Z,8.00
2022-11-12T08:13:55.887Z,5.30
2022-11-12T08:14:56.068Z,6.40
2022-11-12T08:15:56.258Z,5.50
2022-11-12T08:16:56.406Z,5.70
2022-11-12T08:17:56.586Z,4.30
2022-11-12T08:18:56.766Z,3.70
2022-11-12T08:19:56.948Z,4.70
2022-11-12T08:20:57.146Z,5.50
2022-11-12T08:21:57.290Z,3.20
2022-11-12T08:22:57.478Z,4.00
2022-11-12T08:23:57.628Z,6.10
2022-11-12T08:24:57.806Z,7.50
2022-11-12T08:25:58.007Z,5.70
2022-11-12T08:26:58.156Z,4.50
2022-11-12T08:27:58.344Z,3.30
2022-11-12T08:28:58.522Z,2.80
2022-11-12T08:29:58.703Z,4.40
2022-11-12T08:30:58.896Z,4.20
2022-11-12T08:31:59.067Z,6.20
2022-11-12T08:32:59.248Z,4.20
2022-11-12T08:33:59.427Z,4.90
2022-11-12T08:34:59.608Z,6.10
2022-11-12T08:35:59.806Z,7.20
2022-11-12T08:36:59.955Z,5.10
2022-11-12T08:38:00.137Z,5.30
2022-11-12T08:39:00.317Z,4.50
2022-11-12T08:40:00.476Z,5.30
2022-11-12T08:41:00.678Z,3.80
2022-11-12T08:42:00.821Z,6.50
2022-11-12T08:43:01.008Z,8.60
2022-11-12T08:44:07.106Z,4.90
2022-11-12T08:45:02.336Z,3.00
2022-11-12T08:46:01.519Z,2.40
2022-11-12T08:47:01.677Z,3.30
2022-11-12T08:48:01.852Z,5.90
2022-11-12T08:49:02.016Z,5.90
2022-11-12T08:50:02.193Z,5.50
2022-11-12T08:51:02.385Z,4.10
2022-11-12T08:52:02.529Z,4.00
2022-11-12T08:53:02.716Z,4.20
2022-11-12T08:54:02.880Z,6.60
2022-11-12T08:55:03.070Z,4.30
2022-11-12T08:56:03.262Z,5.20
2022-11-12T08:57:03.456Z,10.90
2022-11-12T08:58:03.620Z,4.70
2022-11-12T08:59:07.199Z,4.80
2022-11-12T09:00:03.969Z,6.30
2022-11-12T09:01:04.180Z,5.40
2022-11-12T09:02:04.319Z,6.40
2022-11-12T09:03:04.508Z,5.10
2022-11-12T09:04:04.678Z,5.70
2022-11-12T09:05:04.860Z,2.40
2022-11-12T09:06:05.052Z,7.30
2022-11-12T09:07:06.965Z,6.50
2022-11-12T09:08:05.426Z,3.70
2022-11-12T09:09:05.558Z,3.80
2022-11-12T09:10:05.728Z,4.00
2022-11-12T09:11:05.921Z,4.00
2022-11-12T09:12:13.622Z,4.00
2022-11-12T09:13:07.280Z,2.70
2022-11-12T09:14:06.474Z,3.00
2022-11-12T09:16:07.844Z,3.20
2022-11-12T09:17:07.022Z,3.30
2022-11-12T09:18:07.161Z,5.30
2022-11-12T09:19:07.331Z,6.80
2022-11-12T09:20:07.503Z,4.40
2022-11-12T09:21:07.703Z,7.00
2022-11-12T09:22:07.853Z,5.70
2022-11-12T09:23:08.044Z,4.10
2022-11-12T09:24:08.213Z,4.80
2022-11-12T09:25:08.382Z,4.90
2022-11-12T09:26:08.586Z,4.60
2022-11-12T09:27:08.761Z,6.70
2022-11-12T09:28:08.933Z,4.50
2022-11-12T09:29:09.130Z,4.60
2022-11-12T09:30:09.312Z,2.50
2022-11-12T09:31:09.506Z,5.70
2022-11-12T09:32:09.677Z,2.40
2022-11-12T09:33:09.863Z,2.40
2022-11-12T09:34:10.034Z,3.50
2022-11-12T09:35:10.227Z,4.00
2022-11-12T09:36:10.414Z,4.70
2022-11-12T09:37:10.582Z,3.80
2022-11-12T09:38:10.733Z,3.70
2022-11-12T09:39:10.914Z,6.10
2022-11-12T09:40:11.103Z,3.40
2022-11-12T09:41:11.294Z,4.70
2022-11-12T09:42:11.435Z,3.90
2022-11-12T09:43:11.614Z,7.80
2022-11-12T09:44:11.793Z,4.60
2022-11-12T09:45:11.974Z,3.30
2022-11-12T09:46:27.078Z,4.20
2022-11-12T09:47:13.326Z,4.20
2022-11-12T09:48:12.520Z,5.70
2022-11-12T09:49:12.674Z,4.50
2022-11-12T09:50:12.854Z,4.60
2022-11-12T09:51:13.067Z,6.00
2022-11-12T09:52:13.204Z,4.30
2022-11-12T09:53:13.392Z,3.80
2022-11-12T09:54:13.563Z,5.00
2022-11-12T09:55:13.715Z,5.30
2022-11-12T09:56:13.913Z,6.00
2022-11-12T09:57:14.097Z,5.40
2022-11-12T09:58:14.243Z,7.90
2022-11-12T09:59:14.421Z,4.40
2022-11-12T10:00:14.605Z,4.80
2022-11-12T10:01:14.850Z,4.40
2022-11-12T10:02:14.959Z,5.20
2022-11-12T10:03:15.134Z,8.20
2022-11-12T10:04:15.354Z,3.50
2022-11-12T10:05:15.540Z,6.20
2022-11-12T10:06:19.084Z,5.70
2022-11-12T10:07:15.881Z,8.40
2022-11-12T10:08:15.985Z,5.80
2022-11-12T10:09:16.155Z,5.00
2022-11-12T10:10:16.350Z,5.20
2022-11-12T10:11:16.536Z,6.80
2022-11-12T10:12:16.687Z,4.90
2022-11-12T10:13:16.878Z,7.00
2022-11-12T10:14:17.059Z,5.90
2022-11-12T10:15:17.232Z,5.10
2022-11-12T10:16:17.433Z,8.60
2022-11-12T10:17:17.605Z,7.00
2022-11-12T10:18:17.787Z,6.40
2022-11-12T10:19:17.965Z,6.80
2022-11-12T10:20:18.145Z,7.30
2022-11-12T10:21:18.345Z,7.90
2022-11-12T10:22:18.536Z,8.90
2022-11-12T10:23:18.674Z,8.10
2022-11-12T10:24:18.865Z,11.40
2022-11-12T10:25:19.045Z,10.40
2022-11-12T10:26:19.196Z,8.60
2022-11-12T10:27:19.346Z,8.20
2022-11-12T10:28:19.533Z,8.40
2022-11-12T10:29:19.705Z,9.30
2022-11-12T10:30:19.900Z,8.60
2022-11-12T10:31:20.085Z,14.10
2022-11-12T10:32:20.247Z,8.30
2022-11-12T10:33:20.440Z,8.30
2022-11-12T10:34:20.606Z,8.10
2022-11-12T10:35:20.785Z,9.60
2022-11-12T10:36:20.987Z,10.00
2022-11-12T10:37:21.129Z,6.50
2022-11-12T10:38:21.334Z,7.50
2022-11-12T10:39:21.467Z,13.60
2022-11-12T10:40:21.663Z,8.50
2022-11-12T10:41:21.856Z,4.90
2022-11-12T10:42:22.006Z,8.00
2022-11-12T10:43:22.185Z,8.00
2022-11-12T10:44:22.367Z,5.60
2022-11-12T10:45:22.545Z,5.30
2022-11-12T10:46:22.748Z,5.40
2022-11-12T10:47:22.885Z,4.60
2022-11-12T10:48:27.062Z,7.60
2022-11-12T10:49:23.229Z,11.10
2022-11-12T10:50:23.395Z,12.50
2022-11-12T10:51:23.567Z,6.80
2022-11-12T10:52:23.741Z,6.50
2022-11-12T10:53:23.944Z,5.30
2022-11-12T10:54:24.086Z,7.10
2022-11-12T10:55:24.258Z,7.00
2022-11-12T10:56:24.453Z,7.10
2022-11-12T10:57:24.597Z,8.20
2022-11-12T10:58:25.230Z,8.70
2022-11-12T10:59:24.937Z,5.10
2022-11-12T11:00:25.146Z,5.70
2022-11-12T11:01:25.319Z,5.20
2022-11-12T11:02:25.564Z,10.10
2022-11-12T11:03:25.634Z,8.20
2022-11-12T11:04:25.827Z,10.20
2022-11-12T11:05:25.989Z,8.80
2022-11-12T11:06:26.196Z,9.20
2022-11-12T11:07:26.347Z,7.20
2022-11-12T11:08:30.353Z,9.80
2022-11-12T11:09:27.677Z,8.20
2022-11-12T11:10:26.866Z,12.50
2022-11-12T11:11:27.037Z,10.10
2022-11-12T11:12:27.206Z,8.30
2022-11-12T11:13:27.379Z,5.30
2022-11-12T11:14:27.568Z,9.00
2022-11-12T11:15:27.757Z,10.70
2022-11-12T11:16:27.931Z,11.00
2022-11-12T11:17:28.089Z,12.90
2022-11-12T11:18:28.612Z,14.50
2022-11-12T11:19:28.417Z,9.20
2022-11-12T11:20:28.608Z,9.80
2022-11-12T11:21:28.799Z,11.80
2022-11-12T11:22:28.981Z,10.60
2022-11-12T11:23:29.129Z,8.30
2022-11-12T11:24:29.348Z,10.20
2022-11-12T11:25:29.490Z,8.80
2022-11-12T11:26:29.687Z,14.10
2022-11-12T11:27:29.851Z,14.10
2022-11-12T11:28:30.200Z,13.90
2022-11-12T11:29:30.177Z,8.60
2022-11-12T11:30:30.362Z,12.10
2022-11-12T11:31:30.534Z,10.20
2022-11-12T11:32:36.093Z,14.80
2022-11-12T11:33:31.871Z,13.00
2022-11-12T11:34:31.077Z,12.30
2022-11-12T11:35:31.217Z,11.20
2022-11-12T11:36:31.428Z,17.50
2022-11-12T11:37:31.588Z,13.80
2022-11-12T11:38:31.789Z,12.60
2022-11-12T11:39:31.939Z,15.30
2022-11-12T11:40:32.129Z,28.50
2022-11-12T11:41:32.290Z,17.40
2022-11-12T11:42:32.458Z,17.20
2022-11-12T11:43:32.672Z,13.60
2022-11-12T11:44:32.861Z,17.10
2022-11-12T11:45:32.958Z,13.10
2022-11-12T11:46:33.139Z,13.80
2022-11-12T11:47:50.422Z,15.50
2022-11-12T11:48:34.448Z,16.40
2022-11-12T11:49:33.610Z,15.50
2022-11-12T11:50:33.802Z,15.70
2022-11-12T11:51:33.968Z,17.90
2022-11-12T11:52:34.160Z,18.50
2022-11-12T11:53:34.331Z,16.70
2022-11-12T11:54:34.479Z,15.90
2022-11-12T11:55:34.654Z,17.60
2022-11-12T11:56:34.828Z,17.40
2022-11-12T11:57:34.977Z,13.40
2022-11-12T11:58:35.148Z,16.50
2022-11-12T11:59:35.298Z,17.00
2022-11-12T12:00:35.498Z,16.40
2022-11-12T12:01:35.688Z,13.20
2022-11-12T12:02:35.838Z,13.60
2022-11-12T12:03:36.018Z,17.50
2022-11-12T12:04:36.161Z,21.80
2022-11-12T12:05:36.319Z,16.30
2022-11-12T12:06:36.554Z,13.30
2022-11-12T12:07:36.664Z,16.60
2022-11-12T12:08:36.857Z,14.40
2022-11-12T12:09:37.030Z,17.30
2022-11-12T12:11:01.308Z,17.70
2022-11-12T12:11:38.378Z,15.20
2022-11-12T12:12:37.552Z,35.90
2022-11-12T12:13:37.722Z,19.40
2022-11-12T12:14:37.890Z,18.30
2022-11-12T12:15:38.048Z,14.50
2022-11-12T12:16:38.260Z,17.70
2022-11-12T12:17:38.372Z,24.10
2022-11-12T12:18:38.552Z,14.20
2022-11-12T12:19:38.710Z,19.10
2022-11-12T12:20:38.900Z,19.60
2022-11-12T12:21:39.071Z,15.60
2022-11-12T12:22:39.239Z,15.30
2022-11-12T12:23:39.399Z,17.70
2022-11-12T12:24:39.595Z,17.90
2022-11-12T12:25:39.749Z,14.50
2022-11-12T12:26:39.929Z,13.80
2022-11-12T12:27:40.079Z,16.50
2022-11-12T12:28:40.239Z,13.70
2022-11-12T12:29:40.400Z,14.50
2022-11-12T12:30:40.560Z,13.90
2022-11-12T12:31:40.737Z,12.50
2022-11-12T12:32:40.890Z,16.50
2022-11-12T12:33:41.054Z,15.90
2022-11-12T12:34:41.252Z,16.00
2022-11-12T12:35:41.400Z,14.80
2022-11-12T12:36:41.610Z,13.10
2022-11-12T12:37:41.772Z,11.90
2022-11-12T12:38:41.934Z,12.80
2022-11-12T12:39:46.625Z,13.10
2022-11-12T12:40:43.272Z,14.70
2022-11-12T12:41:42.451Z,13.70
2022-11-12T12:42:42.631Z,15.20
2022-11-12T12:43:42.772Z,15.20
2022-11-12T12:44:42.968Z,13.20
2022-11-12T12:45:43.124Z,13.30
2022-11-12T12:46:43.330Z,15.10
2022-11-12T12:47:43.489Z,13.00
2022-11-12T12:48:43.653Z,14.30
2022-11-12T12:49:43.810Z,13.70
2022-11-12T12:50:43.992Z,12.80
2022-11-12T12:51:44.141Z,15.90
2022-11-12T12:52:44.303Z,13.30
2022-11-12T12:53:44.456Z,13.40
2022-11-12T12:54:44.658Z,14.90
2022-11-12T12:55:44.829Z,16.20
2022-11-12T12:56:44.990Z,17.20
2022-11-12T12:57:45.154Z,12.60
2022-11-12T12:58:45.343Z,16.10
2022-11-12T12:59:45.482Z,14.00
2022-11-12T13:00:45.709Z,16.80
2022-11-12T13:01:45.814Z,12.70
2022-11-12T13:02:45.984Z,12.00
2022-11-12T13:03:46.131Z,14.80
2022-11-12T13:04:46.321Z,16.10
2022-11-12T13:05:46.492Z,15.40
2022-11-12T13:06:46.715Z,13.50
2022-11-12T13:07:46.832Z,15.10
2022-11-12T13:08:46.999Z,14.30
2022-11-12T13:09:47.150Z,17.30
2022-11-12T13:10:47.333Z,14.20
2022-11-12T13:11:47.481Z,11.30
2022-11-12T13:12:47.717Z,11.30
2022-11-12T13:13:47.860Z,13.80
2022-11-12T13:14:48.022Z,15.80